Time;durP1;ratioP1;P1;durP2;ratioP2;P2;SDS_P1;SDS_P2;PMS_P1;PMS_P2;Temp;Humidity;BMP_temperature;BMP_pressure;BME280_temperature;BME280_humidity;BME280_pressure;Samples;Min_cycle;Max_cycle;Signal;HPM_P1;HPM_P2
2021/04/28 00:02:12;;;;;;;16.20;8.90;;;;;;;3.42;58.51;99552.41;1803281;79;21140;-42
2021/04/28 00:04:40;;;;;;;17.75;9.88;;;;;;;3.40;58.73;99545.75;1795568;78;21576;-42
2021/04/28 00:07:08;;;;;;;14.15;8.73;;;;;;;3.39;58.98;99544.95;1786806;79;21459;-42
2021/04/28 00:09:37;;;;;;;16.55;8.88;;;;;;;3.37;58.88;99549.85;1803799;78;21090;-42
2021/04/28 00:12:06;;;;;;;14.68;9.28;;;;;;;3.34;58.89;99551.02;1792713;79;21483;-42
2021/04/28 00:14:35;;;;;;;14.83;8.70;;;;;;;3.32;58.44;99553.20;1797841;79;21147;-42
2021/04/28 00:17:03;;;;;;;15.93;9.05;;;;;;;3.28;58.25;99554.92;1796395;79;21134;-42
2021/04/28 00:19:32;;;;;;;14.50;9.15;;;;;;;3.28;57.96;99556.26;1793351;79;21150;-42
2021/04/28 00:22:00;;;;;;;16.32;9.60;;;;;;;3.25;57.80;99562.20;1767637;81;21134;-42
2021/04/28 00:24:28;;;;;;;16.48;9.30;;;;;;;3.24;57.90;99557.42;1767485;80;21376;-42
2021/04/28 00:26:56;;;;;;;16.97;9.85;;;;;;;3.24;57.85;99559.31;1736434;82;21664;-41
2021/04/28 00:29:25;;;;;;;17.85;9.63;;;;;;;3.20;58.01;99559.11;1762370;81;21641;-42
2021/04/28 00:31:53;;;;;;;15.55;9.40;;;;;;;3.18;57.93;99561.87;1762436;79;21652;-42
2021/04/28 00:34:21;;;;;;;18.45;9.68;;;;;;;3.17;57.88;99558.94;1742031;81;21177;-42
2021/04/28 00:36:48;;;;;;;17.00;9.23;;;;;;;3.17;57.95;99565.64;1749591;81;22332;-42
2021/04/28 00:39:16;;;;;;;16.80;8.60;;;;;;;3.18;57.93;99560.53;1766485;80;21151;-42
2021/04/28 00:41:45;;;;;;;15.53;8.50;;;;;;;3.19;57.84;99560.23;1737405;82;21134;-42
2021/04/28 00:44:12;;;;;;;15.13;9.23;;;;;;;3.19;57.64;99564.80;1719749;82;21172;-42
2021/04/28 00:46:42;;;;;;;14.38;8.40;;;;;;;3.19;57.25;99562.11;1749835;80;21167;-42
2021/04/28 00:49:11;;;;;;;17.77;9.33;;;;;;;3.18;57.24;99562.66;1745816;80;22269;-42
2021/04/28 00:51:39;;;;;;;18.73;9.45;;;;;;;3.17;57.00;99569.65;1772288;80;21907;-42
2021/04/28 00:54:07;;;;;;;19.73;9.68;;;;;;;3.17;56.70;99570.99;1762387;80;21596;-42
2021/04/28 00:56:35;;;;;;;16.30;9.55;;;;;;;3.15;56.58;99567.27;1772304;80;21196;-42
2021/04/28 00:59:03;;;;;;;15.63;9.60;;;;;;;3.11;56.68;99567.64;1773269;80;21182;-42
2021/04/28 01:01:32;;;;;;;14.47;9.18;;;;;;;3.10;56.91;99568.73;1734345;82;21158;-42
2021/04/28 01:04:00;;;;;;;16.15;9.20;;;;;;;3.09;56.74;99567.17;1756642;80;21174;-42
2021/04/28 01:06:28;;;;;;;15.43;9.30;;;;;;;3.08;56.63;99568.80;1715858;80;21407;-42
2021/04/28 01:08:58;;;;;;;16.15;10.08;;;;;;;3.08;56.50;99572.28;1746216;82;21186;-42
2021/04/28 01:11:27;;;;;;;16.20;9.70;;;;;;;3.09;56.53;99571.73;1793386;78;21097;-42
2021/04/28 01:13:57;;;;;;;16.07;9.10;;;;;;;3.06;56.71;99569.89;1803541;78;21320;-42
2021/04/28 01:16:25;;;;;;;15.03;8.45;;;;;;;3.06;56.76;99569.89;1779483;79;21153;-42
2021/04/28 01:18:55;;;;;;;20.30;9.13;;;;;;;3.07;57.04;99572.03;1811334;79;21437;-42
2021/04/28 01:21:25;;;;;;;16.20;9.40;;;;;;;3.04;57.21;99573.44;1788954;78;21141;-42
2021/04/28 01:23:52;;;;;;;14.83;8.58;;;;;;;3.03;56.98;99577.21;1786577;79;21608;-42
2021/04/28 01:26:23;;;;;;;14.30;8.40;;;;;;;3.02;56.87;99571.60;1813747;78;21266;-42
2021/04/28 01:28:51;;;;;;;15.25;9.03;;;;;;;2.96;57.13;99574.15;1815527;78;21711;-42
2021/04/28 01:31:20;;;;;;;14.95;8.43;;;;;;;2.92;57.26;99571.84;1811710;78;21153;-42
2021/04/28 01:33:57;;;;;;;14.68;8.68;;;;;;;2.90;57.37;99574.05;1783993;79;21149;-42
2021/04/28 01:36:37;;;;;;;18.97;9.67;;;;;;;2.88;57.12;99580.23;1783070;79;21153;-42
2021/04/28 01:39:09;;;;;;;15.13;8.20;;;;;;;2.83;57.01;99575.00;1797313;78;21608;-42
2021/04/28 01:41:42;;;;;;;13.93;7.90;;;;;;;2.79;57.27;99579.38;1805382;79;21427;-43
2021/04/28 01:44:13;;;;;;;13.68;7.47;;;;;;;2.80;57.90;99578.30;1784628;79;21581;-42
2021/04/28 01:46:41;;;;;;;12.03;7.35;;;;;;;2.81;58.08;99577.17;1790035;79;21181;-42
2021/04/28 01:49:10;;;;;;;11.88;7.28;;;;;;;2.81;58.04;99569.14;1807099;79;21162;-42
2021/04/28 01:51:40;;;;;;;12.80;8.33;;;;;;;2.78;57.82;99573.77;1795633;79;21362;-43
2021/04/28 01:54:13;;;;;;;15.38;8.05;;;;;;;2.77;57.67;99572.73;1788573;78;21051;-43
2021/04/28 01:56:42;;;;;;;14.05;7.97;;;;;;;2.74;57.62;99578.16;1775624;78;21597;-43
2021/04/28 01:59:15;;;;;;;14.10;7.78;;;;;;;2.73;57.69;99576.56;1773632;79;21430;-43
2021/04/28 02:01:56;;;;;;;10.58;5.85;;;;;;;2.70;57.80;99577.18;1793097;78;21165;-43
2021/04/28 02:04:25;;;;;;;11.33;7.35;;;;;;;2.70;57.77;99575.05;1791217;79;21189;-43
2021/04/28 02:06:53;;;;;;;13.45;8.23;;;;;;;2.65;57.76;99571.94;1790546;78;21408;-43
2021/04/28 02:09:22;;;;;;;13.88;7.42;;;;;;;2.66;58.01;99578.88;1797213;79;21147;-43
2021/04/28 02:11:50;;;;;;;13.20;7.10;;;;;;;2.63;57.97;99571.44;1788264;78;21533;-43
2021/04/28 02:14:21;;;;;;;12.95;7.90;;;;;;;2.60;58.21;99573.39;1794780;78;21164;-43
2021/04/28 02:16:53;;;;;;;11.50;7.33;;;;;;;2.58;58.25;99572.88;1737527;81;21293;-43
2021/04/28 02:19:22;;;;;;;12.63;6.90;;;;;;;2.56;58.30;99569.73;1764484;81;21218;-43
2021/04/28 02:21:53;;;;;;;11.40;7.17;;;;;;;2.56;58.19;99567.85;1717827;81;21195;-43
2021/04/28 02:24:28;;;;;;;13.70;7.80;;;;;;;2.55;58.10;99567.60;1738361;80;21139;-43
2021/04/28 02:26:57;;;;;;;12.33;7.72;;;;;;;2.53;57.67;99564.97;1725775;80;21171;-43
2021/04/28 02:29:27;;;;;;;12.70;7.22;;;;;;;2.54;57.28;99573.25;1728150;80;21440;-43
2021/04/28 02:31:55;;;;;;;12.58;7.25;;;;;;;2.54;56.77;99567.89;1713138;82;21174;-43
2021/04/28 02:34:30;;;;;;;14.95;7.42;;;;;;;2.52;56.63;99572.20;1754585;81;21878;-43
2021/04/28 02:37:00;;;;;;;16.20;7.95;;;;;;;2.49;56.63;99576.83;1719947;80;21170;-43
2021/04/28 02:39:51;;;;;;;13.62;7.37;;;;;;;2.47;56.45;99579.56;1734376;81;21136;-42
2021/04/28 02:42:22;;;;;;;12.47;8.00;;;;;;;2.42;56.43;99581.02;1714680;82;21900;-43
2021/04/28 02:44:52;;;;;;;15.15;7.50;;;;;;;2.36;56.46;99578.19;1711368;81;21174;-43
2021/04/28 02:47:21;;;;;;;12.47;7.35;;;;;;;2.34;56.34;99581.16;1705590;82;21621;-43
2021/04/28 02:49:49;;;;;;;14.13;8.18;;;;;;;2.32;56.63;99581.23;1717819;82;21616;-43
2021/04/28 02:52:36;;;;;;;13.30;7.53;;;;;;;2.34;56.40;99583.03;1746729;80;21192;-43
2021/04/28 02:55:06;;;;;;;11.10;7.72;;;;;;;2.31;56.23;99579.09;1754310;80;22230;-43
2021/04/28 02:57:34;;;;;;;14.20;7.62;;;;;;;2.30;56.20;99582.05;1754459;81;21211;-43
2021/04/28 03:00:08;;;;;;;13.18;7.15;;;;;;;2.29;56.22;99583.14;1814218;79;21696;-43
2021/04/28 03:02:38;;;;;;;15.18;7.50;;;;;;;2.28;56.46;99587.70;1739972;80;21719;-42
2021/04/28 03:05:09;;;;;;;14.78;6.67;;;;;;;2.27;57.16;99586.67;1734702;81;21562;-43
2021/04/28 03:07:53;;;;;;;12.82;7.33;;;;;;;1.96;57.51;99534.34;1812487;77;22824;-41
2021/04/28 03:10:22;;;;;;;13.18;7.92;;;;;;;2.30;58.08;99592.75;1787636;77;21052;-41
2021/04/28 03:12:51;;;;;;;14.38;9.10;;;;;;;2.29;58.30;99589.83;1815223;79;21933;-41
2021/04/28 03:15:21;;;;;;;14.15;7.95;;;;;;;2.32;58.41;99593.27;1807305;79;21003;-41
2021/04/28 03:17:50;;;;;;;10.48;6.15;;;;;;;1.93;58.34;99537.08;1792546;77;21005;-41
2021/04/28 03:20:20;;;;;;;19.40;10.18;;;;;;;2.29;58.85;99595.18;1764074;79;21312;-41
2021/04/28 03:22:48;;;;;;;14.90;9.00;;;;;;;2.30;59.08;99596.77;1800122;77;21601;-42
2021/04/28 03:25:17;;;;;;;18.02;10.25;;;;;;;2.30;59.25;99598.11;1813920;77;22266;-41
2021/04/28 03:27:47;;;;;;;15.78;9.60;;;;;;;2.30;59.47;99602.12;1778989;80;21020;-41
2021/04/28 03:30:17;;;;;;;17.07;10.32;;;;;;;2.29;59.78;99601.87;1762803;80;21767;-41
2021/04/28 03:32:45;;;;;;;15.13;7.78;;;;;;;2.35;59.92;99610.05;1779364;80;21199;-41
2021/04/28 03:35:26;;;;;;;16.35;9.75;;;;;;;2.41;59.99;99610.19;1810284;78;22742;-41
2021/04/28 03:37:56;;;;;;;19.70;10.72;;;;;;;2.44;59.77;99617.61;1772834;79;21011;-41
2021/04/28 03:40:24;;;;;;;19.52;10.58;;;;;;;2.51;59.88;99616.12;1773369;79;21623;-41
2021/04/28 03:42:52;;;;;;;18.12;10.25;;;;;;;2.56;59.60;99617.36;1814722;79;21569;-41
2021/04/28 03:45:20;;;;;;;16.42;9.23;;;;;;;2.65;59.15;99619.33;1796331;78;21027;-41
2021/04/28 03:47:48;;;;;;;16.70;9.73;;;;;;;2.71;58.80;99628.83;1811111;79;21597;-41
2021/04/28 03:50:17;;;;;;;21.93;9.85;;;;;;;2.75;58.45;99625.80;1813402;79;20984;-41
2021/04/28 03:52:48;;;;;;;15.05;9.25;;;;;;;2.81;58.10;99633.40;1794681;79;22111;-41
2021/04/28 03:55:24;;;;;;;17.00;9.65;;;;;;;2.88;57.85;99630.31;1788181;79;21997;-41
2021/04/28 03:57:52;;;;;;;14.75;9.25;;;;;;;2.92;57.40;99625.39;1804864;78;21645;-41
2021/04/28 04:00:21;;;;;;;14.83;9.05;;;;;;;2.95;57.37;99636.83;1808155;79;21150;-41
2021/04/28 04:02:50;;;;;;;13.40;8.55;;;;;;;3.00;57.31;99635.37;1799519;77;21208;-41
2021/04/28 04:05:35;;;;;;;16.12;9.60;;;;;;;3.06;57.20;99636.06;1767961;79;21202;-41
2021/04/28 04:08:18;;;;;;;14.15;8.63;;;;;;;3.17;56.96;99647.34;1803479;78;22842;-43
2021/04/28 04:10:48;;;;;;;15.13;8.80;;;;;;;3.21;57.08;99645.63;1806024;77;20999;-41
2021/04/28 04:13:17;;;;;;;13.83;8.88;;;;;;;3.28;57.27;99651.37;1766938;80;21373;-41
2021/04/28 04:15:46;;;;;;;15.00;8.93;;;;;;;3.34;57.55;99649.59;1727815;81;21189;-41
2021/04/28 04:18:14;;;;;;;16.30;9.50;;;;;;;3.42;57.64;99653.45;1750020;79;21071;-41
2021/04/28 04:20:53;;;;;;;17.25;8.98;;;;;;;3.50;57.56;99651.37;1757700;79;21014;-41
2021/04/28 04:23:23;;;;;;;;;;;;;;;3.59;57.53;99661.59;1760906;79;21147;-41
2021/04/28 04:26:09;;;;;;;13.80;7.97;;;;;;;3.67;57.51;99658.73;1747340;81;21230;-41
2021/04/28 04:29:01;;;;;;;12.78;7.42;;;;;;;3.71;57.50;99658.36;1922045;74;22852;-41
2021/04/28 04:31:32;;;;;;;13.03;7.83;;;;;;;3.79;57.09;99671.81;1882857;74;21010;-41
2021/04/28 04:34:19;;;;;;;14.60;7.45;;;;;;;3.92;57.05;99665.58;1918637;74;21260;-41
2021/04/28 04:37:07;;;;;;;10.30;6.53;;;;;;;4.03;56.91;99668.79;1830010;77;21064;-42
2021/04/28 04:39:49;;;;;;;12.03;6.87;;;;;;;4.14;56.87;99667.98;1812784;77;21066;-41
2021/04/28 04:42:21;;;;;;;11.38;7.03;;;;;;;4.24;56.56;99669.84;1837859;77;21000;-41
2021/04/28 04:44:51;;;;;;;11.93;6.85;;;;;;;4.35;56.55;99675.19;1804911;77;21106;-41
2021/04/28 04:47:19;;;;;;;13.20;7.67;;;;;;;4.46;56.68;99675.67;1839344;77;21346;-41
2021/04/28 04:49:47;;;;;;;13.03;7.30;;;;;;;4.58;56.81;99679.91;1850463;77;20978;-41
2021/04/28 04:52:17;;;;;;;;;;;;;;;4.69;56.83;99681.21;1817298;77;21038;-42
2021/04/28 04:54:45;;;;;;;14.53;6.83;;;;;;;4.84;56.90;99684.56;1790650;77;20329;-41
2021/04/28 04:57:13;;;;;;;12.35;6.85;;;;;;;4.86;57.13;99683.67;1789330;78;21173;-41
2021/04/28 04:59:41;;;;;;;11.80;7.25;;;;;;;4.97;56.35;99680.94;1828173;75;22793;-41
2021/04/28 05:02:09;;;;;;;12.18;6.78;;;;;;;5.11;55.93;99688.30;1870805;75;21095;-41
2021/04/28 05:04:37;;;;;;;9.05;5.60;;;;;;;5.23;55.48;99697.31;1844276;77;21625;-41
2021/04/28 05:07:05;;;;;;;7.62;5.03;;;;;;;5.37;54.17;99695.84;1824952;77;21524;-41
2021/04/28 05:09:33;;;;;;;8.70;5.08;;;;;;;5.48;53.40;99692.25;1803343;77;21143;-41
2021/04/28 05:12:01;;;;;;;6.80;4.20;;;;;;;5.59;52.89;99698.90;1822984;77;21279;-41
2021/04/28 05:14:31;;;;;;;4.90;3.50;;;;;;;5.70;51.35;99698.81;1802595;77;28476;-41
2021/04/28 05:16:59;;;;;;;3.85;2.80;;;;;;;5.82;50.54;99696.80;1812441;77;21153;-41
2021/04/28 05:19:29;;;;;;;4.65;2.83;;;;;;;5.95;49.21;99705.30;1836290;77;21198;-41
2021/04/28 05:21:57;;;;;;;4.67;2.50;;;;;;;6.08;48.32;99709.14;1844951;77;21573;-41
2021/04/28 05:24:26;;;;;;;2.95;2.20;;;;;;;6.21;47.87;99708.70;1827223;77;21350;-41
2021/04/28 05:26:55;;;;;;;2.08;1.87;;;;;;;6.31;46.63;99711.05;1827090;77;21254;-41
2021/04/28 05:29:26;;;;;;;2.08;1.60;;;;;;;6.43;46.02;99715.77;1823120;77;21142;-41
2021/04/28 05:31:53;;;;;;;;;;;;;;;6.53;45.77;99712.72;1857764;76;21169;-41
2021/04/28 05:34:23;;;;;;;2.83;1.40;;;;;;;6.64;45.00;99714.47;1835781;77;20277;-41
2021/04/28 05:36:51;;;;;;;2.98;1.47;;;;;;;6.65;44.17;99714.70;1815693;79;21353;-41
2021/04/28 05:39:19;;;;;;;3.50;1.30;;;;;;;6.78;43.55;99718.52;1799279;77;21153;-41
2021/04/28 05:41:47;;;;;;;3.00;1.22;;;;;;;6.93;43.42;99721.20;1818243;77;21141;-41
2021/04/28 05:44:16;;;;;;;2.45;1.50;;;;;;;7.07;42.80;99720.41;1851536;77;21185;-41
2021/04/28 05:46:46;;;;;;;2.35;1.50;;;;;;;7.24;43.08;99724.91;1830403;76;21596;-42
2021/04/28 05:49:14;;;;;;;;;;;;;;;7.40;42.65;99728.60;1822627;77;21359;-41
2021/04/28 05:51:43;;;;;;;4.00;2.20;;;;;;;7.52;42.02;99729.21;1797560;77;20466;-42
2021/04/28 05:54:10;;;;;;;2.65;1.80;;;;;;;7.52;42.28;99733.25;1832259;76;21114;-42
2021/04/28 05:56:39;;;;;;;2.17;1.77;;;;;;;7.59;42.26;99732.97;1812609;77;21154;-41
2021/04/28 05:59:08;;;;;;;2.87;1.90;;;;;;;7.66;41.90;99735.13;1814564;77;21131;-41
2021/04/28 06:01:36;;;;;;;2.02;1.75;;;;;;;7.77;41.62;99739.80;1838347;77;21364;-42
2021/04/28 06:04:06;;;;;;;2.02;1.60;;;;;;;7.86;41.56;99738.36;1829369;77;21161;-41
2021/04/28 06:06:34;;;;;;;2.80;1.85;;;;;;;7.64;40.60;99694.20;1803315;77;21145;-42
2021/04/28 06:09:04;;;;;;;3.85;1.90;;;;;;;8.06;40.57;99749.69;1817967;77;21173;-41
2021/04/28 06:11:32;;;;;;;4.37;2.03;;;;;;;8.16;40.10;99746.56;1818900;78;21117;-41
2021/04/28 06:14:00;;;;;;;2.60;1.80;;;;;;;8.26;39.98;99745.36;1829642;76;21207;-41
2021/04/28 06:16:29;;;;;;;4.20;2.10;;;;;;;8.35;39.69;99743.38;1802823;76;21197;-41
2021/04/28 06:18:57;;;;;;;5.03;2.17;;;;;;;8.44;39.53;99744.06;1765683;78;21140;-41
2021/04/28 06:21:25;;;;;;;4.33;2.12;;;;;;;8.53;38.93;99734.50;1831320;76;21083;-41
2021/04/28 06:23:53;;;;;;;2.17;1.70;;;;;;;8.60;38.53;99741.50;1845675;76;21486;-41
2021/04/28 06:26:21;;;;;;;4.95;2.00;;;;;;;8.66;38.66;99747.70;1793158;80;21386;-41
2021/04/28 06:28:49;;;;;;;2.85;2.10;;;;;;;8.76;38.00;99747.03;1823861;78;21980;-42
2021/04/28 06:31:18;;;;;;;4.30;2.05;;;;;;;8.82;38.27;99746.45;1807815;77;21651;-41
2021/04/28 06:33:47;;;;;;;2.47;1.85;;;;;;;8.93;38.17;99745.44;1816006;77;21162;-41
2021/04/28 06:36:18;;;;;;;2.70;1.90;;;;;;;9.06;38.26;99743.73;1860483;77;21143;-41
2021/04/28 06:38:46;;;;;;;3.17;2.20;;;;;;;9.21;38.02;99744.96;1860432;77;22267;-41
2021/04/28 06:41:17;;;;;;;2.98;2.10;;;;;;;9.32;37.43;99739.88;1840234;76;21135;-41
2021/04/28 06:43:45;;;;;;;4.80;2.35;;;;;;;9.40;37.49;99744.36;1826953;77;21182;-41
2021/04/28 06:46:15;;;;;;;4.95;2.45;;;;;;;9.47;37.42;99741.87;1842630;77;21149;-41
2021/04/28 06:48:43;;;;;;;3.08;2.15;;;;;;;9.51;37.76;99748.17;1830962;77;21147;-42
2021/04/28 06:51:11;;;;;;;4.00;1.98;;;;;;;9.50;37.50;99750.09;1858535;77;21358;-42
2021/04/28 06:53:39;;;;;;;4.65;1.75;;;;;;;9.57;37.45;99753.58;1838405;77;21156;-42
2021/04/28 06:56:07;;;;;;;4.03;1.85;;;;;;;9.67;36.77;99756.38;1835508;77;21056;-42
2021/04/28 06:58:35;;;;;;;1.80;1.20;;;;;;;9.76;36.88;99753.74;1836721;77;21036;-42
2021/04/28 07:01:04;;;;;;;5.97;1.62;;;;;;;9.90;36.94;99764.17;1832618;77;21601;-42
2021/04/28 07:03:32;;;;;;;5.47;1.95;;;;;;;10.04;36.00;99760.50;1842022;77;21343;-42
2021/04/28 07:06:02;;;;;;;3.02;1.75;;;;;;;10.14;36.37;99760.57;1844494;77;21143;-43
2021/04/28 07:08:31;;;;;;;2.52;1.72;;;;;;;10.22;34.93;99764.50;1773373;79;21431;-42
2021/04/28 07:10:59;;;;;;;3.58;1.80;;;;;;;10.26;35.42;99763.27;1832348;77;21135;-42
2021/04/28 07:13:27;;;;;;;4.75;1.98;;;;;;;10.34;35.38;99770.44;1826491;78;21785;-42
2021/04/28 07:15:55;;;;;;;4.15;1.70;;;;;;;10.41;35.49;99765.98;1816526;77;21275;-42
2021/04/28 07:18:23;;;;;;;4.20;1.95;;;;;;;10.56;35.93;99768.48;1788837;79;21037;-42
2021/04/28 07:20:51;;;;;;;3.77;1.90;;;;;;;10.73;34.61;99772.78;1796222;79;21125;-42
2021/04/28 07:23:19;;;;;;;2.25;1.42;;;;;;;10.79;34.56;99763.26;1793904;78;21141;-42
2021/04/28 07:25:48;;;;;;;3.70;1.75;;;;;;;10.86;34.81;99761.48;1765389;79;21616;-42
2021/04/28 07:28:15;;;;;;;2.42;1.72;;;;;;;10.99;35.00;99764.13;1761694;79;22058;-42
2021/04/28 07:30:44;;;;;;;2.90;1.70;;;;;;;11.12;33.50;99763.66;1765142;79;21113;-42
2021/04/28 07:33:12;;;;;;;2.27;1.70;;;;;;;11.21;33.53;99760.75;1825765;77;21099;-42
2021/04/28 07:35:40;;;;;;;3.95;1.90;;;;;;;11.24;32.72;99762.74;1812851;77;21429;-42
2021/04/28 07:38:08;;;;;;;2.50;1.77;;;;;;;11.24;32.52;99758.67;1760062;78;21130;-42
2021/04/28 07:40:37;;;;;;;3.35;2.00;;;;;;;11.22;32.77;99756.89;1818931;78;21472;-42
2021/04/28 07:43:05;;;;;;;3.33;2.20;;;;;;;11.21;33.61;99745.81;1817528;78;21146;-42
2021/04/28 07:45:35;;;;;;;2.33;2.05;;;;;;;11.34;32.12;99763.55;1805199;78;21043;-42
2021/04/28 07:48:09;;;;;;;4.40;2.55;;;;;;;11.37;32.22;99756.64;1802649;78;21192;-42
2021/04/28 07:50:40;;;;;;;2.62;1.82;;;;;;;11.42;33.51;99762.59;1794062;78;21134;-42
2021/04/28 07:53:08;;;;;;;2.50;2.10;;;;;;;11.54;32.57;99757.02;1803276;79;21200;-42
2021/04/28 07:55:36;;;;;;;3.87;2.30;;;;;;;11.53;32.60;99760.86;1805965;79;21170;-42
2021/04/28 07:58:07;;;;;;;2.98;2.12;;;;;;;11.51;32.06;99763.16;1816382;79;22103;-42
2021/04/28 08:00:35;;;;;;;4.85;2.22;;;;;;;11.54;32.16;99757.58;1807864;78;21170;-42
2021/04/28 08:03:05;;;;;;;3.20;1.90;;;;;;;11.73;32.87;99756.27;1803730;78;21123;-43
2021/04/28 08:05:33;;;;;;;2.55;1.98;;;;;;;11.97;32.54;99755.19;1818794;78;21357;-43
2021/04/28 08:08:01;;;;;;;4.37;2.10;;;;;;;12.09;31.44;99762.63;1819718;78;21158;-42
2021/04/28 08:10:29;;;;;;;2.47;2.00;;;;;;;12.09;31.32;99757.20;1782862;80;21155;-43
2021/04/28 08:12:58;;;;;;;3.22;2.00;;;;;;;12.19;31.11;99760.69;1797561;79;21156;-42
2021/04/28 08:15:26;;;;;;;3.00;2.22;;;;;;;12.31;30.64;99758.36;1784953;78;21431;-43
2021/04/28 08:17:54;;;;;;;3.47;2.08;;;;;;;12.42;30.79;99756.63;1791336;78;21205;-42
2021/04/28 08:20:22;;;;;;;2.17;1.98;;;;;;;12.58;31.83;99760.60;1818732;78;21135;-42
2021/04/28 08:22:50;;;;;;;3.12;2.15;;;;;;;12.71;30.01;99764.70;1822472;78;21624;-42
2021/04/28 08:25:21;;;;;;;2.98;2.20;;;;;;;12.67;30.33;99757.63;1822770;78;21181;-42
2021/04/28 08:27:50;;;;;;;5.15;2.45;;;;;;;12.63;30.39;99762.42;1821370;78;21182;-42
2021/04/28 08:30:20;;;;;;;2.20;1.82;;;;;;;12.69;31.38;99759.39;1820161;78;21274;-43
2021/04/28 08:32:49;;;;;;;3.67;2.05;;;;;;;12.87;31.01;99752.33;1821487;78;21215;-42
2021/04/28 08:35:17;;;;;;;2.35;1.77;;;;;;;12.97;30.47;99747.63;1822349;78;21155;-43
2021/04/28 08:37:47;;;;;;;3.90;2.10;;;;;;;12.98;30.51;99748.61;1819133;78;21151;-42
2021/04/28 08:40:16;;;;;;;3.75;2.20;;;;;;;13.02;30.66;99751.41;1816384;78;21595;-43
2021/04/28 08:42:44;;;;;;;1.95;1.75;;;;;;;13.12;29.50;99753.50;1828891;78;22160;-43
2021/04/28 08:45:13;;;;;;;4.30;2.35;;;;;;;13.15;29.66;99751.43;1826125;78;20999;-42
2021/04/28 08:47:43;;;;;;;3.30;2.05;;;;;;;13.25;30.10;99752.16;1812985;78;21219;-43
2021/04/28 08:50:12;;;;;;;3.77;1.90;;;;;;;13.31;30.13;99757.48;1767456;78;21194;-43
2021/04/28 08:52:43;;;;;;;2.62;1.85;;;;;;;13.38;29.58;99744.55;1816077;78;21132;-43
2021/04/28 08:55:13;;;;;;;2.47;1.85;;;;;;;13.41;29.51;99740.50;1767040;80;21194;-43
2021/04/28 08:57:42;;;;;;;2.72;2.00;;;;;;;13.38;29.12;99741.82;1808381;78;21177;-43
2021/04/28 09:00:11;;;;;;;2.47;2.10;;;;;;;13.30;29.33;99753.20;1803080;78;21129;-43
2021/04/28 09:05:30;;;;;;;2.92;2.17;;;;;;;13.33;29.31;99735.33;1762720;79;22453;-42
2021/04/28 09:07:58;;;;;;;3.15;1.90;;;;;;;13.26;29.95;99738.77;1724615;82;20945;-42
2021/04/28 09:10:29;;;;;;;2.85;2.22;;;;;;;13.41;29.48;99735.05;1744705;82;21365;-42
2021/04/28 09:13:08;;;;;;;2.58;1.77;;;;;;;13.56;29.98;99731.94;1739625;82;22160;-42
2021/04/28 09:15:46;;;;;;;4.83;2.45;;;;;;;13.71;28.76;99741.08;1723997;82;21600;-42
2021/04/28 09:18:22;;;;;;;2.70;2.00;;;;;;;13.79;28.25;99728.55;1743320;82;21541;-42
2021/04/28 09:21:10;;;;;;;3.58;2.30;;;;;;;13.97;29.91;99728.74;1811615;77;22695;-42
2021/04/28 09:23:55;;;;;;;2.22;1.87;;;;;;;14.13;28.76;99732.62;1715927;82;22074;-42
2021/04/28 09:26:49;;;;;;;2.50;1.82;;;;;;;14.31;28.61;99728.12;1878063;76;22719;-42
2021/04/28 09:29:23;;;;;;;2.85;2.20;;;;;;;14.38;28.18;99724.72;1819718;77;20999;-42
2021/04/28 09:32:04;;;;;;;4.33;1.95;;;;;;;14.44;27.37;99727.28;1834158;77;21133;-42
2021/04/28 09:34:39;;;;;;;4.78;2.10;;;;;;;14.40;27.95;99736.02;1853715;77;21667;-42
2021/04/28 09:37:15;;;;;;;3.42;1.90;;;;;;;14.32;27.51;99725.03;1853707;77;21613;-42
2021/04/28 09:39:47;;;;;;;2.25;1.95;;;;;;;14.23;27.65;99711.49;1777931;80;21033;-42
2021/04/28 09:42:17;;;;;;;2.12;1.82;;;;;;;14.38;27.77;99717.89;1788550;79;21145;-42
2021/04/28 09:44:49;;;;;;;2.80;1.77;;;;;;;14.60;28.19;99721.79;1786516;78;22177;-42
2021/04/28 09:47:22;;;;;;;3.40;1.95;;;;;;;14.84;27.46;99709.50;1805115;78;21021;-42
2021/04/28 09:50:03;;;;;;;3.42;1.70;;;;;;;15.10;27.14;99707.91;1810987;78;21691;-42
2021/04/28 09:52:42;;;;;;;3.77;1.60;;;;;;;15.21;26.20;99706.02;1780014;80;21634;-43
2021/04/28 09:55:13;;;;;;;2.42;1.90;;;;;;;15.18;25.92;99706.80;1796746;78;21533;-42
2021/04/28 09:57:51;;;;;;;4.80;2.17;;;;;;;15.10;25.31;99703.05;1802753;78;22282;-42
2021/04/28 10:00:29;;;;;;;2.77;1.77;;;;;;;15.08;25.59;99710.25;1802315;78;21162;-42
2021/04/28 10:03:04;;;;;;;2.47;1.67;;;;;;;15.25;26.89;99701.94;1799852;78;21142;-42
2021/04/28 10:05:42;;;;;;;3.72;1.82;;;;;;;15.60;24.99;99704.09;1813879;78;21142;-42
2021/04/28 10:08:21;;;;;;;4.05;1.90;;;;;;;15.94;24.80;99693.66;1805551;79;21553;-42
2021/04/28 10:10:52;;;;;;;2.25;1.90;;;;;;;16.23;25.75;99687.08;1791816;78;21655;-42
2021/04/28 10:13:20;;;;;;;2.40;2.00;;;;;;;16.52;24.75;99697.45;1779197;80;21126;-42
2021/04/28 10:15:48;;;;;;;2.42;1.80;;;;;;;16.73;24.14;99694.75;1771188;80;21467;-42
2021/04/28 10:18:18;;;;;;;2.50;1.77;;;;;;;16.72;23.93;99690.45;1760896;80;21179;-42
2021/04/28 10:20:48;;;;;;;2.72;2.12;;;;;;;16.61;23.50;99700.61;1800540;78;21182;-43
2021/04/28 10:23:18;;;;;;;3.77;1.70;;;;;;;16.55;23.57;99688.48;1788998;78;21278;-44
2021/04/28 10:25:49;;;;;;;3.95;2.10;;;;;;;16.55;23.96;99687.11;1777097;80;21118;-44
2021/04/28 10:28:18;;;;;;;3.75;2.00;;;;;;;16.58;23.68;99691.83;1803952;78;21118;-42
2021/04/28 10:30:48;;;;;;;2.42;1.90;;;;;;;16.58;23.68;99687.72;1793984;78;21150;-44
2021/04/28 10:33:22;;;;;;;3.17;1.80;;;;;;;16.63;23.61;99680.48;1789305;80;21149;-43
2021/04/28 10:35:50;;;;;;;2.47;1.95;;;;;;;16.79;23.32;99683.61;1821402;78;21374;-43
2021/04/28 10:38:26;;;;;;;2.27;1.92;;;;;;;16.96;23.62;99690.22;1787847;80;21152;-42
2021/04/28 10:40:55;;;;;;;3.08;1.75;;;;;;;17.17;22.12;99684.70;1730163;81;21072;-42
2021/04/28 10:43:37;;;;;;;2.25;1.77;;;;;;;17.21;22.22;99677.84;1821736;78;20993;-43
2021/04/28 10:46:20;;;;;;;3.77;2.20;;;;;;;17.28;23.03;99675.84;1756673;80;21194;-42
2021/04/28 10:48:51;;;;;;;2.70;2.00;;;;;;;17.32;22.18;99668.42;1760740;80;21564;-42
2021/04/28 10:51:37;;;;;;;3.37;2.10;;;;;;;17.40;22.51;99659.56;1810275;78;21755;-42
2021/04/28 10:54:25;;;;;;;3.12;1.90;;;;;;;17.47;22.71;99669.14;1787782;80;21039;-42
2021/04/28 10:57:07;;;;;;;3.17;2.05;;;;;;;17.38;22.27;99659.17;1809807;78;21154;-43
2021/04/28 10:59:39;;;;;;;4.33;1.70;;;;;;;17.41;22.81;99665.25;1775249;80;21242;-41
2021/04/28 11:02:11;;;;;;;3.58;1.98;;;;;;;17.51;22.24;99660.91;1788621;80;21899;-41
2021/04/28 11:04:45;;;;;;;3.02;2.00;;;;;;;17.70;22.33;99657.11;1772076;80;21170;-41
2021/04/28 11:07:15;;;;;;;2.17;1.95;;;;;;;17.96;22.59;99658.52;1761456;81;21595;-41
2021/04/28 11:09:43;;;;;;;3.77;2.12;;;;;;;18.35;23.10;99656.12;1763752;80;21652;-41
2021/04/28 11:12:11;;;;;;;3.62;2.05;;;;;;;18.74;21.93;99654.41;1775662;79;21588;-41
2021/04/28 11:14:48;;;;;;;3.17;2.08;;;;;;;18.77;21.38;99650.86;1775873;79;21380;-41
2021/04/28 11:17:21;;;;;;;3.85;2.20;;;;;;;18.60;21.33;99646.49;1760835;81;21153;-41
2021/04/28 11:22:50;;;;;;;3.25;1.75;;;;;;;18.58;22.49;99645.36;1865384;75;22325;-40
2021/04/28 11:25:19;;;;;;;2.90;2.10;;;;;;;18.91;22.17;99642.48;1819375;76;21125;-41
2021/04/28 11:28:02;;;;;;;3.77;2.22;;;;;;;19.26;21.84;99643.47;1783464;78;21387;-41
2021/04/28 11:30:37;;;;;;;2.60;1.95;;;;;;;19.43;20.82;99649.34;1832316;76;21006;-41
2021/04/28 11:33:13;;;;;;;2.33;2.10;;;;;;;19.28;20.95;99641.07;1819467;76;21762;-41
2021/04/28 11:35:59;;;;;;;3.22;2.20;;;;;;;19.17;20.75;99641.03;1841149;76;21138;-40
2021/04/28 11:38:32;;;;;;;2.50;2.20;;;;;;;19.26;20.80;99632.47;1842509;76;21010;-41
2021/04/28 11:41:06;;;;;;;3.50;2.37;;;;;;;19.59;20.67;99631.50;1843784;76;21719;-41
2021/04/28 11:43:57;;;;;;;2.92;2.10;;;;;;;19.89;20.94;99632.84;1836923;76;21656;-42
2021/04/28 11:46:27;;;;;;;3.37;2.27;;;;;;;20.22;20.86;99628.41;1807922;78;21200;-40
2021/04/28 11:48:58;;;;;;;4.62;2.47;;;;;;;20.58;20.39;99639.03;1835841;77;21549;-42
2021/04/28 11:51:32;;;;;;;3.20;2.60;;;;;;;20.83;20.19;99639.38;1835286;76;21137;-41
2021/04/28 11:54:10;;;;;;;3.22;2.27;;;;;;;21.04;19.14;99640.96;1829970;77;21978;-41
2021/04/28 11:56:46;;;;;;;2.83;2.35;;;;;;;20.93;19.43;99635.45;1841326;76;21540;-40
2021/04/28 11:59:22;;;;;;;4.00;2.35;;;;;;;20.65;19.20;99625.74;1824333;76;21551;-41
2021/04/28 12:02:03;;;;;;;3.00;2.15;;;;;;;20.39;20.27;99626.77;1814446;76;21169;-40